Time;durP1;ratioP1;P1;durP2;ratioP2;P2;SDS_P1;SDS_P2;PMS_P1;PMS_P2;Temp;Humidity;BMP_temperature;BMP_pressure;BME280_temperature;BME280_humidity;BME280_pressure;Samples;Min_cycle;Max_cycle;Signal;HPM_P1;HPM_P2
2022/11/16 00:01:32;;;;;;;24.42;19.95;;;;;;;9.59;100.00;99641.25;6135118;23;20403;-91
2022/11/16 00:03:59;;;;;;;24.25;20.13;;;;;;;9.59;100.00;99645.72;6139314;23;20010;-94
2022/11/16 00:06:26;;;;;;;25.65;19.67;;;;;;;9.65;100.00;99654.13;6160609;23;20012;-93
2022/11/16 00:11:40;;;;;;;26.63;20.40;;;;;;;9.63;100.00;99652.53;6159185;23;20401;-93
2022/11/16 00:14:06;;;;;;;26.17;20.20;;;;;;;9.67;100.00;99662.84;6109911;23;20014;-92
2022/11/16 00:16:32;;;;;;;28.55;21.40;;;;;;;9.65;100.00;99661.25;6112429;23;20021;-94
2022/11/16 00:19:00;;;;;;;25.98;21.00;;;;;;;9.59;100.00;99651.03;6139355;23;20057;-92
2022/11/16 00:21:26;;;;;;;28.67;20.95;;;;;;;9.62;100.00;99658.81;6147893;23;20074;-93
2022/11/16 00:23:52;;;;;;;29.35;20.98;;;;;;;9.69;100.00;99668.06;6125658;23;19998;-92
2022/11/16 00:26:17;;;;;;;29.95;21.23;;;;;;;9.63;100.00;99663.16;6124997;23;20014;-92
2022/11/16 00:28:43;;;;;;;30.42;22.33;;;;;;;9.69;100.00;99668.91;6147768;23;20001;-93
2022/11/16 00:31:08;;;;;;;32.20;22.55;;;;;;;9.65;100.00;99669.22;6107073;23;20053;-92
2022/11/16 00:33:34;;;;;;;29.98;22.08;;;;;;;9.70;100.00;99678.59;6134673;23;20037;-92
2022/11/16 00:36:01;;;;;;;29.40;22.65;;;;;;;9.73;100.00;99675.72;6107367;23;20010;-91
2022/11/16 00:38:26;;;;;;;32.47;23.45;;;;;;;9.62;100.00;99661.47;6130687;23;20005;-93
2022/11/16 00:40:52;;;;;;;47.03;24.42;;;;;;;9.60;100.00;99666.84;6132081;23;20054;-91
2022/11/16 00:43:17;;;;;;;29.30;22.42;;;;;;;9.72;100.00;99667.84;6106735;23;20036;-91
2022/11/16 00:45:43;;;;;;;29.35;23.15;;;;;;;9.69;100.00;99649.47;6131065;23;20128;-91
2022/11/16 00:48:09;;;;;;;30.73;23.77;;;;;;;9.68;100.00;99645.94;6128758;23;20009;-91
2022/11/16 00:50:35;;;;;;;35.08;24.45;;;;;;;9.72;100.00;99644.78;6130687;23;20033;-91
2022/11/16 00:53:00;;;;;;;32.67;24.10;;;;;;;9.61;100.00;99602.13;6104238;23;20002;-90
2022/11/16 00:55:25;;;;;;;39.75;25.25;;;;;;;9.71;100.00;99650.22;6105153;23;20089;-90
2022/11/16 00:57:51;;;;;;;36.92;25.25;;;;;;;9.63;100.00;99661.34;6103133;23;19994;-91
2022/11/16 01:00:17;;;;;;;36.58;24.52;;;;;;;9.58;100.00;99655.50;6129319;23;20025;-91
2022/11/16 01:02:42;;;;;;;32.40;22.80;;;;;;;9.70;100.00;99665.31;6126851;23;20376;-90
2022/11/16 01:05:11;;;;;;;31.75;24.17;;;;;;;9.72;100.00;99644.78;6126408;23;20017;-90
2022/11/16 01:07:38;;;;;;;36.20;24.23;;;;;;;9.67;100.00;99651.38;6127822;23;20006;-91
2022/11/16 01:10:06;;;;;;;36.65;25.67;;;;;;;9.73;100.00;99653.63;6128467;23;20037;-88
2022/11/16 01:12:31;;;;;;;38.63;25.48;;;;;;;9.71;100.00;99659.03;6138118;23;20010;-90
2022/11/16 01:14:57;;;;;;;43.45;27.08;;;;;;;9.70;100.00;99649.38;6157323;23;20002;-90
2022/11/16 01:17:22;;;;;;;36.58;25.50;;;;;;;9.62;100.00;99622.47;6129195;23;20088;-91
2022/11/16 01:19:47;;;;;;;39.30;27.13;;;;;;;9.70;100.00;99632.59;6157293;23;20079;-90
2022/11/16 01:22:12;;;;;;;34.67;26.17;;;;;;;9.64;100.00;99622.34;6157083;23;20009;-90
2022/11/16 01:24:38;;;;;;;35.75;25.55;;;;;;;9.68;100.00;99629.16;6157116;23;20009;-91
2022/11/16 01:27:03;;;;;;;39.63;25.98;;;;;;;9.72;100.00;99630.66;6157633;23;20006;-90
2022/11/16 01:29:29;;;;;;;41.08;26.13;;;;;;;9.61;100.00;99618.06;6131847;23;19997;-90
2022/11/16 01:31:55;;;;;;;34.70;24.77;;;;;;;9.54;100.00;99606.19;6157335;23;20017;-90
2022/11/16 01:34:21;;;;;;;40.13;26.80;;;;;;;9.69;100.00;99625.53;6156114;23;20006;-91
2022/11/16 01:36:47;;;;;;;40.75;25.73;;;;;;;9.66;100.00;99629.28;6156807;23;20080;-92
2022/11/16 01:39:13;;;;;;;58.92;28.15;;;;;;;9.69;100.00;99628.19;6129796;23;20060;-90
2022/11/16 01:41:41;;;;;;;42.40;26.20;;;;;;;9.68;100.00;99619.38;6128660;23;20015;-91
2022/11/16 01:44:32;;;;;;;34.85;25.48;;;;;;;9.67;100.00;99614.19;6155193;23;20009;-90
2022/11/16 01:47:05;;;;;;;35.38;26.10;;;;;;;9.71;100.00;99628.97;6153427;23;20416;-92
2022/11/16 01:49:34;;;;;;;45.25;27.40;;;;;;;9.68;100.00;99624.69;6154266;23;20033;-93
2022/11/16 01:52:04;;;;;;;52.45;28.85;;;;;;;9.69;100.00;99625.53;6154780;23;20001;-90
2022/11/16 01:54:33;;;;;;;41.15;26.45;;;;;;;9.69;100.00;99622.88;6154335;23;20555;-90
2022/11/16 01:57:01;;;;;;;47.58;27.58;;;;;;;9.70;100.00;99622.81;6127210;23;19989;-90
2022/11/16 01:59:28;;;;;;;42.75;26.77;;;;;;;9.59;100.00;99604.06;6127988;23;20392;-91
2022/11/16 02:01:53;;;;;;;49.15;28.58;;;;;;;9.64;100.00;99614.38;6153850;23;20016;-90
2022/11/16 02:04:18;;;;;;;44.22;27.50;;;;;;;9.63;100.00;99610.88;6126730;23;20009;-91
2022/11/16 02:06:55;;;;;;;45.83;28.50;;;;;;;9.72;100.00;99620.03;6154698;23;20347;-92
2022/11/16 02:12:17;;;;;;;50.95;27.60;;;;;;;9.69;100.00;99613.09;6152892;23;20096;-90
2022/11/16 02:15:02;;;;;;;43.20;26.58;;;;;;;9.67;100.00;99600.91;6154123;23;20027;-91
2022/11/16 02:17:53;;;;;;;39.60;26.02;;;;;;;9.61;100.00;99591.50;6125992;23;20228;-91
2022/11/16 02:20:47;;;;;;;42.70;25.60;;;;;;;9.49;100.00;99581.72;6154388;23;20005;-91
2022/11/16 02:23:59;;;;;;;40.88;25.90;;;;;;;9.62;100.00;99603.00;6155477;23;20009;-89
2022/11/16 02:26:36;;;;;;;41.88;24.85;;;;;;;9.57;100.00;99594.47;6155251;23;20002;-91
2022/11/16 02:29:09;;;;;;;37.25;24.40;;;;;;;9.48;100.00;99580.00;6155615;23;20080;-91
2022/11/16 02:31:38;;;;;;;34.90;24.55;;;;;;;9.64;100.00;99593.97;6156255;23;20009;-91
2022/11/16 02:34:07;;;;;;;37.17;24.65;;;;;;;9.57;100.00;99573.22;6155476;23;20006;-91
2022/11/16 02:36:33;;;;;;;33.72;23.50;;;;;;;9.67;100.00;99592.94;6129085;23;20013;-91
2022/11/16 02:39:11;;;;;;;38.63;25.23;;;;;;;9.61;100.00;99580.88;6130181;23;20089;-91
2022/11/16 02:41:40;;;;;;;37.97;25.58;;;;;;;9.68;100.00;99592.81;6156711;23;20037;-91
2022/11/16 02:44:12;;;;;;;36.90;24.08;;;;;;;9.73;100.00;99585.38;6155960;23;20009;-91
2022/11/16 02:46:42;;;;;;;38.03;25.50;;;;;;;9.72;100.00;99588.16;6155700;23;20020;-93
2022/11/16 02:49:16;;;;;;;42.42;25.95;;;;;;;9.69;100.00;99589.19;6163966;23;20044;-90
2022/11/16 02:51:41;;;;;;;;;;;;;;;9.76;100.00;99594.13;6178764;23;20013;-92
2022/11/16 02:54:18;;;;;;;40.67;25.75;;;;;;;9.78;100.00;99602.81;6177828;23;19944;-91
2022/11/16 02:56:52;;;;;;;37.15;25.63;;;;;;;9.66;100.00;99580.59;6173106;23;20028;-90
2022/11/16 02:59:19;;;;;;;43.97;26.88;;;;;;;9.77;100.00;99606.44;6159514;23;20352;-91
2022/11/16 03:02:01;;;;;;;36.60;25.33;;;;;;;9.76;100.00;99608.25;6133512;23;20016;-91
2022/11/16 03:04:39;;;;;;;37.60;24.55;;;;;;;9.72;100.00;99609.41;6134033;23;20498;-93
2022/11/16 03:07:09;;;;;;;30.90;22.42;;;;;;;9.76;100.00;99604.75;6157851;23;20006;-92
2022/11/16 03:09:37;;;;;;;27.35;20.70;;;;;;;9.78;100.00;99616.97;6158695;23;20014;-92
2022/11/16 03:12:08;;;;;;;28.27;19.73;;;;;;;9.60;100.00;99586.31;6131959;23;20009;-91
2022/11/16 03:14:43;;;;;;;25.83;20.05;;;;;;;9.76;100.00;99624.19;6157062;23;20006;-90
2022/11/16 03:17:19;;;;;;;25.20;20.27;;;;;;;9.62;100.00;99608.31;6154433;23;20014;-91
2022/11/16 03:20:00;;;;;;;26.95;19.58;;;;;;;9.63;100.00;99624.16;6157042;23;20009;-90
2022/11/16 03:22:32;;;;;;;27.85;18.58;;;;;;;9.73;100.00;99635.00;6131324;23;20380;-90
2022/11/16 03:24:58;;;;;;;27.25;18.45;;;;;;;9.55;100.00;99607.88;6155837;23;20048;-90
2022/11/16 03:27:35;;;;;;;24.73;17.33;;;;;;;9.65;100.00;99630.19;6130375;23;20006;-90
2022/11/16 03:30:04;;;;;;;17.63;14.15;;;;;;;9.58;100.00;99634.25;6156729;23;20014;-91
2022/11/16 03:32:35;;;;;;;16.88;14.52;;;;;;;9.55;100.00;99634.44;6128905;23;20516;-91
2022/11/16 03:35:24;;;;;;;16.20;13.05;;;;;;;9.45;100.00;99622.72;6154617;23;20129;-90
2022/11/16 03:37:53;;;;;;;13.57;11.30;;;;;;;9.40;100.00;99627.47;6127167;23;20514;-91
2022/11/16 03:40:19;;;;;;;10.02;8.27;;;;;;;9.29;100.00;99630.84;6153383;23;20077;-92
2022/11/16 03:42:48;;;;;;;7.70;6.90;;;;;;;9.14;100.00;99626.50;6127575;23;20451;-90
2022/11/16 03:45:15;;;;;;;7.38;6.60;;;;;;;9.16;100.00;99649.34;6127466;23;20037;-90
2022/11/16 03:47:41;;;;;;;7.40;5.80;;;;;;;9.09;100.00;99642.72;6155596;23;20072;-91
2022/11/16 03:50:07;;;;;;;5.95;5.03;;;;;;;9.06;100.00;99655.34;6155439;23;20336;-91
2022/11/16 03:52:33;;;;;;;4.75;4.28;;;;;;;8.91;100.00;99639.44;6135520;23;20008;-90
2022/11/16 03:54:59;;;;;;;4.88;3.85;;;;;;;8.95;100.00;99672.81;6141328;23;20013;-90
2022/11/16 03:57:24;;;;;;;4.68;4.00;;;;;;;8.94;100.00;99670.22;6163494;23;20052;-89
2022/11/16 03:59:49;;;;;;;6.13;4.07;;;;;;;8.87;100.00;99675.09;6166291;23;20416;-90
2022/11/16 04:02:15;;;;;;;5.45;4.35;;;;;;;8.91;100.00;99675.75;6160529;23;20005;-91
2022/11/16 04:29:20;;;;;;;7.43;5.72;;;;;;;8.70;100.00;99672.63;6159259;23;20298;-92
2022/11/16 04:40:19;;;;;;;8.85;6.22;;;;;;;8.61;100.00;99678.47;6051830;23;20004;-91
2022/11/16 04:43:10;;;;;;;9.60;7.00;;;;;;;8.61;100.00;99689.97;6040147;23;20070;-89
2022/11/16 04:48:19;;;;;;;8.48;7.20;;;;;;;8.57;100.00;99701.72;6039321;23;20037;-92
2022/11/16 04:50:46;;;;;;;13.00;7.75;;;;;;;8.61;100.00;99699.69;6038808;23;20042;-92
2022/11/16 04:53:12;;;;;;;9.68;7.75;;;;;;;8.57;100.00;99706.13;6012812;23;20011;-91
2022/11/16 04:55:37;;;;;;;12.52;7.72;;;;;;;8.53;100.00;99697.53;6012867;23;20014;-92
2022/11/16 04:58:03;;;;;;;10.25;7.35;;;;;;;8.55;100.00;99695.63;6035810;23;20422;-90
2022/11/16 05:00:29;;;;;;;12.02;7.10;;;;;;;8.55;100.00;99702.72;6038118;23;20038;-92
2022/11/16 05:02:54;;;;;;;8.43;6.80;;;;;;;8.56;100.00;99713.25;6015994;23;20106;-90
2022/11/16 05:05:20;;;;;;;8.93;6.45;;;;;;;8.56;100.00;99709.72;6014891;23;20097;-89
2022/11/16 05:07:46;;;;;;;11.77;7.03;;;;;;;8.52;100.00;99703.75;6038626;23;20015;-91
2022/11/16 05:10:12;;;;;;;7.40;6.55;;;;;;;8.46;100.00;99702.34;6038449;23;19991;-91
2022/11/16 05:12:37;;;;;;;12.52;7.10;;;;;;;8.36;100.00;99687.91;6021858;23;20046;-91
2022/11/16 05:15:04;;;;;;;9.13;7.28;;;;;;;8.37;100.00;99710.84;6088264;23;20017;-92
2022/11/16 05:17:29;;;;;;;11.82;7.38;;;;;;;8.25;100.00;99700.94;6132601;23;20001;-91
2022/11/16 05:22:39;;;;;;;13.55;8.02;;;;;;;8.20;100.00;99708.31;6147727;23;20028;-90
2022/11/16 05:25:06;;;;;;;14.43;7.85;;;;;;;8.14;100.00;99706.88;6117164;23;20424;-91
2022/11/16 05:27:31;;;;;;;14.82;7.72;;;;;;;8.03;100.00;99697.88;6127820;23;20044;-91
2022/11/16 05:29:57;;;;;;;14.60;7.85;;;;;;;7.96;100.00;99698.22;6128826;23;20013;-91
2022/11/16 05:32:24;;;;;;;11.55;7.18;;;;;;;7.99;100.00;99699.84;6128022;23;20258;-90
2022/11/16 05:34:49;;;;;;;13.93;7.90;;;;;;;7.86;100.00;99682.91;6127470;23;20383;-91
2022/11/16 05:37:15;;;;;;;12.43;6.95;;;;;;;7.95;100.00;99696.50;6125545;23;20010;-91
2022/11/16 05:39:41;;;;;;;14.75;7.15;;;;;;;7.79;100.00;99695.69;6126987;23;20686;-92
2022/11/16 05:42:07;;;;;;;9.95;7.20;;;;;;;7.72;100.00;99689.03;6126867;23;20041;-92
2022/11/16 05:44:32;;;;;;;13.35;7.30;;;;;;;7.68;100.00;99687.50;6125183;23;20546;-91
2022/11/16 05:46:58;;;;;;;10.60;7.47;;;;;;;7.78;100.00;99717.84;6126664;23;20014;-92
2022/11/16 05:49:23;;;;;;;10.23;7.07;;;;;;;7.71;100.00;99719.97;6127792;23;20010;-91
2022/11/16 05:51:49;;;;;;;12.32;7.60;;;;;;;7.65;100.00;99724.75;6102074;23;20016;-92
2022/11/16 05:54:18;;;;;;;14.15;8.23;;;;;;;7.60;100.00;99732.09;6123598;23;20029;-91
2022/11/16 05:56:44;;;;;;;11.18;7.30;;;;;;;7.57;100.00;99732.28;6126214;23;20006;-91
2022/11/16 05:59:12;;;;;;;13.93;8.90;;;;;;;7.58;100.00;99731.34;6126259;23;20085;-89
2022/11/16 06:01:37;;;;;;;11.98;9.05;;;;;;;7.35;100.00;99714.06;6128022;23;20010;-91
2022/11/16 06:04:03;;;;;;;14.95;9.50;;;;;;;7.36;100.00;99718.47;6127426;23;20032;-92
2022/11/16 06:06:28;;;;;;;13.40;9.05;;;;;;;7.26;100.00;99707.50;6127227;23;20065;-91
2022/11/16 06:08:54;;;;;;;14.23;8.95;;;;;;;7.34;100.00;99731.75;6126565;23;20009;-91
2022/11/16 06:11:19;;;;;;;13.63;9.27;;;;;;;7.27;100.00;99729.53;6123476;23;20692;-91
2022/11/16 06:13:44;;;;;;;16.13;10.13;;;;;;;7.28;100.00;99732.09;6148299;23;20021;-91
2022/11/16 06:16:10;;;;;;;15.52;10.13;;;;;;;7.24;100.00;99733.22;6155732;23;20013;-92
2022/11/16 06:18:40;;;;;;;19.85;10.15;;;;;;;7.23;100.00;99739.44;6130877;23;20029;-91
2022/11/16 06:21:07;;;;;;;19.13;10.15;;;;;;;7.18;100.00;99746.75;6130732;23;20329;-92
2022/11/16 06:23:33;;;;;;;18.05;10.32;;;;;;;7.19;100.00;99743.16;6157996;23;20071;-92
2022/11/16 06:25:59;;;;;;;17.20;10.65;;;;;;;7.18;100.00;99741.47;6135703;23;20048;-93
2022/11/16 06:28:25;;;;;;;19.70;11.90;;;;;;;7.17;100.00;99745.91;6156810;23;20001;-91
2022/11/16 06:30:50;;;;;;;18.08;11.60;;;;;;;7.06;100.00;99743.00;6137724;23;20029;-92
2022/11/16 06:33:16;;;;;;;14.10;10.90;;;;;;;7.07;100.00;99744.72;6160734;23;20009;-93
2022/11/16 06:35:42;;;;;;;18.92;10.38;;;;;;;6.83;100.00;99724.88;6154831;23;20124;-93
2022/11/16 06:38:07;;;;;;;15.15;10.52;;;;;;;7.02;100.00;99756.47;6131410;23;20753;-91
2022/11/16 06:40:32;;;;;;;19.65;11.57;;;;;;;7.01;100.00;99758.25;6131244;23;20002;-92
2022/11/16 06:42:58;;;;;;;21.65;12.20;;;;;;;6.92;100.00;99759.59;6130874;23;20089;-94
2022/11/16 06:45:25;;;;;;;24.95;13.35;;;;;;;6.89;100.00;99749.19;6130584;23;20005;-93
2022/11/16 06:47:50;;;;;;;22.33;14.00;;;;;;;6.94;100.00;99770.97;6156882;23;20016;-92
2022/11/16 06:50:18;;;;;;;24.38;14.48;;;;;;;6.88;100.00;99765.16;6132037;23;20002;-91
2022/11/16 06:52:45;;;;;;;25.65;13.98;;;;;;;6.85;100.00;99765.28;6135754;23;20020;-93
2022/11/16 06:55:10;;;;;;;24.83;15.02;;;;;;;6.89;100.00;99772.13;6130807;23;20053;-91
2022/11/16 06:57:36;;;;;;;24.42;14.43;;;;;;;6.88;100.00;99781.00;6129217;23;19998;-90
2022/11/16 07:00:01;;;;;;;25.30;14.35;;;;;;;6.70;100.00;99748.47;6153378;23;20265;-90
2022/11/16 07:02:27;;;;;;;18.75;13.25;;;;;;;6.83;100.00;99768.03;6153143;23;20233;-91
2022/11/16 07:04:52;;;;;;;24.42;14.80;;;;;;;6.61;100.00;99741.00;6149602;23;20551;-90
2022/11/16 07:07:17;;;;;;;25.33;15.23;;;;;;;6.80;100.00;99762.91;6146459;23;20080;-89
2022/11/16 07:09:43;;;;;;;27.20;15.95;;;;;;;6.86;100.00;99774.97;6122424;23;20006;-90
2022/11/16 07:12:09;;;;;;;26.85;15.10;;;;;;;6.87;100.00;99784.59;6127065;23;20006;-90
2022/11/16 07:14:34;;;;;;;23.50;15.30;;;;;;;6.70;100.00;99767.81;6153068;23;20006;-90
2022/11/16 07:16:59;;;;;;;24.75;14.75;;;;;;;6.82;100.00;99798.06;6152679;23;20005;-90
2022/11/16 07:19:25;;;;;;;26.02;14.20;;;;;;;6.81;100.00;99801.63;6152102;23;20040;-90
2022/11/16 07:21:50;;;;;;;22.95;13.73;;;;;;;6.85;100.00;99797.88;6149026;23;20443;-89
2022/11/16 07:24:15;;;;;;;23.75;13.90;;;;;;;6.80;100.00;99793.78;6122412;23;20005;-91
2022/11/16 07:26:40;;;;;;;21.45;12.63;;;;;;;6.74;100.00;99784.38;6125884;23;20368;-90
2022/11/16 07:29:06;;;;;;;22.60;11.70;;;;;;;6.78;100.00;99796.53;6151591;23;20045;-89
2022/11/16 07:31:31;;;;;;;19.00;11.55;;;;;;;6.75;100.00;99796.66;6125328;23;20714;-89
2022/11/16 07:33:56;;;;;;;24.15;11.93;;;;;;;6.85;100.00;99811.13;6153553;23;20412;-91
2022/11/16 07:36:22;;;;;;;25.23;11.07;;;;;;;6.84;100.00;99816.50;6152830;23;20060;-89
2022/11/16 07:38:47;;;;;;;18.58;10.25;;;;;;;6.79;100.00;99814.09;6152827;23;20001;-88
2022/11/16 07:41:18;;;;;;;25.73;12.43;;;;;;;6.84;100.00;99820.00;6129508;23;20001;-89
2022/11/16 07:43:43;;;;;;;23.05;12.20;;;;;;;6.81;100.00;99812.22;6169060;23;20065;-91
2022/11/16 07:46:17;;;;;;;22.50;10.60;;;;;;;6.82;100.00;99826.31;6149512;23;20005;-90
2022/11/16 07:48:43;;;;;;;17.83;11.15;;;;;;;6.81;100.00;99817.50;6176470;23;20014;-91
2022/11/16 07:51:15;;;;;;;19.05;9.88;;;;;;;6.83;100.00;99820.94;6162559;23;19990;-87
2022/11/16 07:53:41;;;;;;;18.00;9.38;;;;;;;6.83;100.00;99825.38;6129271;23;20060;-91
2022/11/16 07:56:07;;;;;;;18.60;9.73;;;;;;;6.83;100.00;99828.88;6153059;23;20025;-90
2022/11/16 07:58:33;;;;;;;15.75;9.52;;;;;;;6.80;100.00;99826.38;6155657;23;20116;-92
2022/11/16 08:01:11;;;;;;;20.58;10.27;;;;;;;6.81;100.00;99830.72;6150709;23;20024;-83
2022/11/16 08:03:38;;;;;;;27.48;10.73;;;;;;;6.86;100.00;99831.38;6148795;23;20005;-86
2022/11/16 08:06:12;;;;;;;20.52;9.07;;;;;;;6.86;100.00;99831.38;6148475;23;20458;-84
2022/11/16 08:08:38;;;;;;;16.83;8.40;;;;;;;6.83;100.00;99833.31;6152281;23;20049;-84
2022/11/16 08:11:05;;;;;;;15.48;8.73;;;;;;;6.88;100.00;99842.69;6150337;23;20006;-86
2022/11/16 08:13:33;;;;;;;15.93;9.48;;;;;;;6.75;100.00;99815.19;6124763;23;20018;-86
2022/11/16 08:16:09;;;;;;;22.63;8.60;;;;;;;6.86;100.00;99831.38;6151444;23;20017;-86
2022/11/16 08:18:35;;;;;;;18.50;8.93;;;;;;;6.93;100.00;99837.16;6152536;23;20005;-86
2022/11/16 08:21:02;;;;;;;17.58;8.85;;;;;;;6.93;100.00;99840.66;6125385;23;20056;-85
2022/11/16 08:23:28;;;;;;;18.35;9.32;;;;;;;6.94;100.00;99834.47;6149996;23;20080;-85
2022/11/16 08:26:01;;;;;;;16.13;8.32;;;;;;;6.95;100.00;99836.16;6153266;23;20381;-87
2022/11/16 08:28:28;;;;;;;14.48;7.95;;;;;;;6.90;100.00;99832.91;6127269;23;20081;-86
2022/11/16 08:30:54;;;;;;;15.30;7.63;;;;;;;6.93;100.00;99827.44;6153757;23;20017;-85
2022/11/16 08:33:20;;;;;;;15.88;7.43;;;;;;;7.00;100.00;99843.88;6151797;23;20001;-85
2022/11/16 08:35:47;;;;;;;17.25;7.65;;;;;;;6.96;100.00;99826.44;6152352;23;20423;-84
2022/11/16 08:38:12;;;;;;;18.00;8.57;;;;;;;7.11;100.00;99840.66;6148223;23;20158;-83
2022/11/16 08:40:38;;;;;;;17.13;7.22;;;;;;;7.19;100.00;99851.69;6151418;23;20033;-83
2022/11/16 08:43:03;;;;;;;17.52;7.68;;;;;;;7.24;100.00;99837.28;6148635;23;20025;-84
2022/11/16 08:45:28;;;;;;;17.83;7.22;;;;;;;7.21;100.00;99842.72;6149397;23;20013;-84
2022/11/16 08:47:55;;;;;;;15.90;6.65;;;;;;;7.21;100.00;99839.25;6149450;23;20400;-85
2022/11/16 08:50:20;;;;;;;17.77;7.18;;;;;;;7.17;100.00;99837.69;6149060;23;20092;-83
2022/11/16 08:52:46;;;;;;;18.92;7.97;;;;;;;7.17;100.00;99853.56;6152360;23;20005;-84
2022/11/16 08:55:12;;;;;;;18.85;7.47;;;;;;;7.16;100.00;99855.34;6152628;23;20021;-84
2022/11/16 08:57:38;;;;;;;16.00;7.07;;;;;;;7.15;100.00;99858.94;6154574;23;20040;-83
2022/11/16 09:00:04;;;;;;;19.88;7.70;;;;;;;7.15;100.00;99850.16;6149629;23;20002;-86
2022/11/16 09:02:30;;;;;;;16.48;7.38;;;;;;;7.18;100.00;99858.75;6150773;23;20088;-82
2022/11/16 09:04:56;;;;;;;19.80;6.90;;;;;;;7.14;100.00;99851.94;6149237;23;20029;-87
2022/11/16 09:07:21;;;;;;;16.05;7.30;;;;;;;7.19;100.00;99859.63;6150824;23;20024;-86
2022/11/16 09:09:47;;;;;;;16.60;7.03;;;;;;;7.19;100.00;99859.63;6149763;23;20008;-86
2022/11/16 09:12:12;;;;;;;21.38;6.65;;;;;;;7.19;100.00;99862.25;6152528;23;20010;-86
2022/11/16 09:14:37;;;;;;;17.35;6.75;;;;;;;7.23;100.00;99862.06;6152861;23;20080;-84
2022/11/16 09:17:03;;;;;;;15.75;6.22;;;;;;;7.27;100.00;99868.00;6124815;23;20009;-84
2022/11/16 09:19:28;;;;;;;16.13;6.40;;;;;;;7.22;100.00;99856.81;6151590;23;20013;-85
2022/11/16 09:21:53;;;;;;;17.10;6.30;;;;;;;7.24;100.00;99849.66;6152473;23;20010;-87
2022/11/16 09:24:19;;;;;;;17.73;6.60;;;;;;;7.29;100.00;99855.56;6152035;23;20076;-86
2022/11/16 09:26:44;;;;;;;18.92;6.97;;;;;;;7.27;100.00;99852.13;6152888;23;20328;-85
2022/11/16 09:29:11;;;;;;;15.73;7.32;;;;;;;7.34;100.00;99864.13;6152145;23;19998;-86
2022/11/16 09:31:36;;;;;;;16.67;6.80;;;;;;;7.38;100.00;99865.66;6125819;23;20056;-87
2022/11/16 09:34:02;;;;;;;15.90;6.55;;;;;;;7.39;100.00;99866.50;6150554;23;20037;-87
2022/11/16 09:36:28;;;;;;;15.70;7.05;;;;;;;7.39;100.00;99863.88;6152519;23;20125;-86
2022/11/16 09:38:54;;;;;;;14.57;6.32;;;;;;;7.41;100.00;99862.84;6152189;23;20788;-87
2022/11/16 09:41:50;;;;;;;19.10;6.97;;;;;;;7.41;100.00;99868.16;6152115;23;20005;-87
2022/11/16 09:44:33;;;;;;;13.43;6.00;;;;;;;7.45;100.00;99872.34;6151679;23;20028;-85
2022/11/16 09:47:00;;;;;;;17.00;6.70;;;;;;;7.55;100.00;99874.50;6125414;23;20005;-87
2022/11/16 09:49:31;;;;;;;19.65;6.25;;;;;;;7.59;100.00;99876.03;6152071;23;20428;-85
2022/11/16 09:52:01;;;;;;;15.50;5.75;;;;;;;7.48;100.00;99858.97;6152520;23;20332;-87
2022/11/16 09:54:31;;;;;;;15.60;6.47;;;;;;;7.52;100.00;99872.84;6151196;23;20005;-86
2022/11/16 09:56:59;;;;;;;16.85;5.95;;;;;;;7.49;100.00;99868.59;6152014;23;20008;-87
2022/11/16 09:59:35;;;;;;;15.15;5.88;;;;;;;7.52;100.00;99872.00;6149707;23;20012;-87
2022/11/16 10:02:18;;;;;;;23.77;5.90;;;;;;;7.45;100.00;99855.63;6150692;23;20450;-86
2022/11/16 10:05:26;;;;;;;14.93;5.05;;;;;;;7.50;100.00;99864.16;6149920;23;20009;-86
2022/11/16 10:08:02;;;;;;;13.95;6.05;;;;;;;7.49;100.00;99863.31;6005850;23;20067;-85
2022/11/16 10:10:37;;;;;;;14.75;5.57;;;;;;;7.52;100.00;99867.56;6031992;23;20350;-85
2022/11/16 10:13:22;;;;;;;15.65;5.22;;;;;;;7.57;100.00;99875.28;6040507;23;20007;-86
2022/11/16 10:15:50;;;;;;;12.48;4.70;;;;;;;7.58;100.00;99879.63;6048236;23;20011;-83
2022/11/16 10:18:33;;;;;;;16.13;5.15;;;;;;;7.57;100.00;99876.13;6037185;23;20007;-84
2022/11/16 10:21:26;;;;;;;11.25;4.97;;;;;;;7.59;100.00;99879.53;6033709;23;20022;-87
2022/11/16 10:24:19;;;;;;;11.80;4.45;;;;;;;7.56;100.00;99863.81;6030077;23;20071;-85
2022/11/16 10:27:06;;;;;;;12.53;4.70;;;;;;;7.63;100.00;99877.59;6031438;23;20018;-86
2022/11/16 10:29:59;;;;;;;14.25;4.90;;;;;;;7.65;100.00;99873.06;6031891;23;20042;-85
2022/11/16 10:32:34;;;;;;;12.35;4.78;;;;;;;7.70;100.00;99865.72;6031462;23;20011;-85
2022/11/16 10:35:11;;;;;;;13.57;3.92;;;;;;;7.71;100.00;99872.72;6031939;23;20007;-85
2022/11/16 10:37:47;;;;;;;8.77;3.85;;;;;;;7.72;100.00;99866.50;6044996;23;20090;-89
2022/11/16 10:40:21;;;;;;;14.43;4.18;;;;;;;7.76;100.00;99859.22;6153554;23;20041;-87
2022/11/16 10:43:04;;;;;;;11.27;4.30;;;;;;;7.76;100.00;99857.44;6152291;23;20428;-87
2022/11/16 10:45:42;;;;;;;11.43;4.03;;;;;;;7.84;100.00;99862.31;6127341;23;20052;-87
2022/11/16 10:48:14;;;;;;;11.00;3.80;;;;;;;7.89;100.00;99860.25;6152991;23;20005;-88
2022/11/16 10:50:50;;;;;;;12.05;3.60;;;;;;;7.92;100.00;99860.94;6153114;23;20001;-89
2022/11/16 10:53:26;;;;;;;13.27;3.53;;;;;;;8.14;100.00;99862.41;6153001;23;20447;-88
2022/11/16 10:56:13;;;;;;;10.23;3.00;;;;;;;8.45;100.00;99874.81;6153572;23;20029;-89
2022/11/16 10:58:59;;;;;;;10.85;3.20;;;;;;;8.69;100.00;99865.44;6155112;23;20013;-89
2022/11/16 11:01:32;;;;;;;7.72;3.00;;;;;;;8.78;100.00;99855.19;6154558;23;20010;-87
2022/11/16 11:04:21;;;;;;;6.72;2.20;;;;;;;8.76;100.00;99859.75;6127342;23;20009;-88
2022/11/16 11:06:59;;;;;;;6.40;2.50;;;;;;;8.64;100.00;99829.50;6153621;23;19998;-89
2022/11/16 11:09:29;;;;;;;9.75;2.72;;;;;;;8.65;100.00;99848.00;6155237;23;20081;-87
2022/11/16 11:15:10;;;;;;;7.78;2.80;;;;;;;8.59;100.00;99847.47;6123966;23;20028;-87
2022/11/16 11:17:40;;;;;;;8.23;2.80;;;;;;;8.69;100.00;99841.56;6100268;23;20014;-87
2022/11/16 11:20:15;;;;;;;8.48;3.30;;;;;;;9.04;100.00;99857.16;6124860;23;20038;-87
2022/11/16 11:23:11;;;;;;;8.13;2.70;;;;;;;9.25;100.00;99856.81;6123909;23;20009;-87
2022/11/16 11:25:40;;;;;;;9.32;2.75;;;;;;;9.33;100.00;99847.44;6123465;23;20001;-87
2022/11/16 11:28:17;;;;;;;7.60;2.95;;;;;;;9.47;100.00;99850.06;6097975;23;20009;-89
2022/11/16 11:31:01;;;;;;;8.27;2.50;;;;;;;9.53;100.00;99843.56;6125664;23;20006;-87
2022/11/16 11:33:34;;;;;;;12.00;3.33;;;;;;;9.59;100.00;99847.63;6127298;23;20001;-88
2022/11/16 11:36:01;;;;;;;7.87;2.23;;;;;;;9.56;100.00;99835.38;6125199;23;20010;-88
2022/11/16 11:38:27;;;;;;;9.65;2.97;;;;;;;9.55;100.00;99830.16;6125895;23;20417;-87
2022/11/16 11:40:58;;;;;;;8.65;2.72;;;;;;;9.59;100.00;99839.66;6125959;23;20009;-88
2022/11/16 11:43:24;;;;;;;11.75;3.03;;;;;;;9.52;100.00;99835.66;6127372;23;20080;-88
2022/11/16 11:46:02;;;;;;;8.15;2.88;;;;;;;9.45;100.00;99830.75;6128358;23;20030;-88
2022/11/16 11:48:36;;;;;;;6.07;2.60;;;;;;;9.40;100.00;99830.16;6127658;23;20006;-89
2022/11/16 11:51:12;;;;;;;9.43;3.00;;;;;;;9.38;100.00;99813.47;6128051;23;20029;-88
2022/11/16 11:53:48;;;;;;;9.65;2.90;;;;;;;9.58;100.00;99817.53;6124412;23;20002;-89
2022/11/16 11:56:14;;;;;;;9.25;3.30;;;;;;;9.75;100.00;99821.78;6100166;23;20009;-88
2022/11/16 11:58:40;;;;;;;9.65;2.75;;;;;;;9.90;100.00;99815.47;6100675;23;20014;-87
2022/11/16 12:01:32;;;;;;;8.07;2.50;;;;;;;10.15;100.00;99812.06;6125863;23;20404;-88
2022/11/16 12:04:06;;;;;;;6.60;2.25;;;;;;;10.06;100.00;99804.69;6126207;23;20005;-88
2022/11/16 12:06:42;;;;;;;9.50;2.60;;;;;;;10.14;100.00;99793.56;6125773;23;20450;-88
2022/11/16 12:09:25;;;;;;;7.93;2.70;;;;;;;10.45;100.00;99797.75;6125236;23;20001;-89
2022/11/16 12:12:01;;;;;;;7.40;2.42;;;;;;;10.44;100.00;99791.56;6100272;23;20142;-87
2022/11/16 12:14:32;;;;;;;9.02;2.78;;;;;;;10.25;100.00;99790.25;6099455;23;20021;-87
2022/11/16 12:17:16;;;;;;;12.10;2.72;;;;;;;9.96;100.00;99792.97;6125506;23;20341;-86
2022/11/16 12:19:57;;;;;;;7.20;2.22;;;;;;;9.67;100.00;99773.59;6125211;23;20759;-88
2022/11/16 12:22:53;;;;;;;9.07;2.58;;;;;;;9.50;100.00;99787.09;6097433;23;20022;-87
2022/11/16 12:25:36;;;;;;;6.03;2.25;;;;;;;9.38;100.00;99788.72;6098989;23;20005;-86